createdAt,value
2018-10-11T00:00:52.380Z,15
2018-10-11T00:05:54.847Z,14.9
2018-10-11T00:10:57.319Z,14.8
2018-10-11T00:15:59.765Z,14.8
2018-10-11T00:21:02.232Z,14.6
2018-10-11T00:26:04.670Z,14.5
2018-10-11T00:31:07.137Z,14.4
2018-10-11T00:36:09.585Z,14.4
2018-10-11T00:41:12.056Z,14.3
2018-10-11T00:46:14.511Z,14.3
2018-10-11T00:51:16.965Z,14.1
2018-10-11T00:56:19.411Z,14.1
2018-10-11T01:01:21.878Z,13.9
2018-10-11T01:06:24.377Z,13.9
2018-10-11T01:11:26.820Z,13.8
2018-10-11T01:16:29.363Z,13.7
2018-10-11T01:21:31.845Z,13.7
2018-10-11T01:26:34.185Z,13.6
2018-10-11T01:31:36.639Z,13.5
2018-10-11T01:36:39.075Z,13.5
2018-10-11T01:41:41.541Z,13.4
2018-10-11T01:46:44.003Z,13.4
2018-10-11T01:51:46.458Z,13.3
2018-10-11T01:56:48.954Z,13.3
2018-10-11T02:01:51.395Z,13.3
2018-10-11T02:06:53.831Z,13.2
2018-10-11T02:11:56.283Z,13.3
2018-10-11T02:16:58.757Z,13.2
2018-10-11T02:22:01.244Z,13.1
2018-10-11T02:27:03.666Z,13
2018-10-11T02:32:06.287Z,12.9
2018-10-11T02:37:08.593Z,12.8
2018-10-11T02:42:11.034Z,12.8
2018-10-11T02:47:13.510Z,12.8
2018-10-11T02:52:15.970Z,12.8
2018-10-11T02:57:18.407Z,12.9
2018-10-11T03:02:20.864Z,13
2018-10-11T03:07:23.345Z,13
2018-10-11T03:12:25.779Z,13
2018-10-11T03:17:28.243Z,13.1
2018-10-11T03:22:30.752Z,13.1
2018-10-11T03:27:33.184Z,13.1
2018-10-11T03:32:35.610Z,13.2
2018-10-11T03:37:38.070Z,13.2
2018-10-11T03:42:40.527Z,13.2
2018-10-11T03:47:42.986Z,13.1
2018-10-11T03:52:45.454Z,13.1
2018-10-11T03:57:47.930Z,13
2018-10-11T04:02:50.433Z,13
2018-10-11T04:07:52.853Z,12.8
2018-10-11T04:12:55.356Z,12.7
2018-10-11T04:17:57.788Z,12.6
2018-10-11T04:23:00.244Z,12.6
2018-10-11T04:28:02.683Z,12.7
2018-10-11T04:33:05.186Z,12.7
2018-10-11T04:38:07.657Z,12.6
2018-10-11T04:43:10.160Z,12.6
2018-10-11T04:48:12.473Z,12.6
2018-10-11T04:53:14.964Z,12.6
2018-10-11T04:58:17.391Z,12.6
2018-10-11T05:03:19.847Z,12.7
2018-10-11T05:08:22.320Z,12.7
2018-10-11T05:13:24.776Z,12.7
2018-10-11T05:18:27.232Z,12.6
2018-10-11T05:23:29.692Z,12.6
2018-10-11T05:28:32.154Z,12.6
2018-10-11T05:33:34.607Z,12.6
2018-10-11T05:38:37.097Z,12.5
2018-10-11T05:43:39.528Z,12.5
2018-10-11T05:48:41.973Z,12.5
2018-10-11T05:53:44.438Z,12.6
2018-10-11T05:58:46.894Z,12.6
2018-10-11T06:03:49.369Z,12.7
2018-10-11T06:08:51.826Z,12.8
2018-10-11T06:13:54.261Z,12.9
2018-10-11T06:18:56.721Z,13.2
2018-10-11T06:23:59.285Z,14.5
2018-10-11T06:29:01.666Z,15.8
2018-10-11T06:34:04.111Z,16.8
2018-10-11T06:39:06.559Z,17.6
2018-10-11T06:44:09.069Z,18
2018-10-11T06:49:11.520Z,18.2
2018-10-11T06:54:13.933Z,18.5
2018-10-11T06:59:16.386Z,18.8
2018-10-11T07:04:18.852Z,19
2018-10-11T07:09:21.327Z,18.9
2018-10-11T07:14:23.782Z,18
2018-10-11T07:19:26.321Z,17.1
2018-10-11T07:24:28.681Z,17.4
2018-10-11T07:29:31.134Z,18.2
2018-10-11T07:34:33.720Z,18.7
2018-10-11T07:39:36.085Z,18.8
2018-10-11T07:44:38.508Z,18.9
2018-10-11T07:49:40.969Z,18.9
2018-10-11T07:54:43.443Z,19.1
2018-10-11T07:59:45.884Z,19.6
2018-10-11T08:04:48.352Z,19.7
2018-10-11T08:09:50.923Z,19.8
2018-10-11T08:14:53.270Z,20.2
2018-10-11T08:19:55.769Z,20.8
2018-10-11T08:24:58.350Z,21.6
2018-10-11T08:30:00.692Z,22.1
2018-10-11T08:35:03.102Z,22.5
2018-10-11T08:40:05.580Z,21.4
2018-10-11T08:45:08.036Z,19.8
2018-10-11T08:50:10.534Z,18.9
2018-10-11T08:55:12.940Z,18.4
2018-10-11T09:00:15.403Z,18.1
2018-10-11T09:05:17.976Z,17.9
2018-10-11T09:10:20.335Z,17.8
2018-10-11T09:15:22.803Z,17.8
2018-10-11T09:20:25.265Z,18
2018-10-11T09:25:27.719Z,18
2018-10-11T09:30:30.219Z,18.2
2018-10-11T09:35:32.642Z,18.3
2018-10-11T09:40:35.061Z,18.2
2018-10-11T09:45:37.604Z,18.2
2018-10-11T09:50:39.978Z,18.3
2018-10-11T09:55:42.456Z,18.3
2018-10-11T10:00:44.897Z,18.4
2018-10-11T10:05:47.353Z,18.4
2018-10-11T10:10:49.811Z,18.5
2018-10-11T10:15:52.283Z,18.5
2018-10-11T10:20:54.778Z,18.7
2018-10-11T10:25:57.193Z,18.8
2018-10-11T10:30:59.630Z,19
2018-10-11T10:36:02.128Z,19
2018-10-11T10:41:04.565Z,19.2
2018-10-11T10:46:07.032Z,19.1
2018-10-11T10:51:09.479Z,19
2018-10-11T10:56:11.931Z,18.9
2018-10-11T11:01:14.395Z,19
2018-10-11T11:06:16.871Z,19.1
2018-10-11T11:11:19.307Z,19.3
2018-10-11T11:16:21.780Z,19.6
2018-10-11T11:21:24.236Z,19.7
2018-10-11T11:26:26.675Z,19.8
2018-10-11T11:31:29.139Z,19.9
2018-10-11T11:36:31.586Z,19.9
2018-10-11T11:41:34.064Z,19.9
2018-10-11T11:46:36.513Z,19.9
2018-10-11T11:51:39.085Z,19.9
2018-10-11T11:56:41.420Z,19.9
2018-10-11T12:01:44.168Z,20.1
2018-10-11T12:06:46.348Z,20.2
2018-10-11T12:11:48.820Z,20.2
2018-10-11T12:16:51.258Z,20.3
2018-10-11T12:21:53.789Z,20.4
2018-10-11T12:26:56.256Z,20.4
2018-10-11T12:31:58.648Z,20.4
2018-10-11T12:37:01.128Z,20.5
2018-10-11T12:42:03.564Z,20.5
2018-10-11T12:47:06.006Z,20.6
2018-10-11T12:52:08.545Z,20.7
2018-10-11T12:57:16.186Z,20.7
2018-10-11T13:02:13.378Z,20.8
2018-10-11T13:07:15.833Z,20.8
2018-10-11T13:12:18.328Z,20.7
2018-10-11T13:17:20.752Z,20.6
2018-10-11T13:22:23.212Z,20.7
2018-10-11T13:27:25.674Z,20.8
2018-10-11T13:32:28.142Z,20.9
2018-10-11T13:37:30.656Z,21
2018-10-11T13:42:33.068Z,21.1
2018-10-11T13:47:41.217Z,21.2
2018-10-11T13:52:37.963Z,21.2
2018-10-11T13:57:40.436Z,21.2
2018-10-11T14:02:42.871Z,21.2
2018-10-11T14:07:45.337Z,21.1
2018-10-11T14:12:47.795Z,21.1
2018-10-11T14:17:50.499Z,21.1
2018-10-11T14:22:52.719Z,21.1
2018-10-11T14:27:55.229Z,21.1
2018-10-11T14:32:57.635Z,21.1
2018-10-11T14:38:00.110Z,21.1
2018-10-11T14:43:02.558Z,21.1
2018-10-11T14:48:05.015Z,21.1
2018-10-11T14:53:07.486Z,21
2018-10-11T14:58:09.926Z,21
2018-10-11T15:03:12.447Z,21
2018-10-11T15:13:17.311Z,21
2018-10-11T15:18:19.776Z,20.9
2018-10-11T15:23:22.239Z,20.9
2018-10-11T15:28:24.776Z,20.8
2018-10-11T15:33:27.129Z,20.7
2018-10-11T15:38:29.613Z,20.7
2018-10-11T15:43:32.168Z,20.6
2018-10-11T15:48:34.523Z,20.5
2018-10-11T15:53:37.021Z,20.4
2018-10-11T15:58:39.553Z,20.2
2018-10-11T16:03:41.897Z,20.1
2018-10-11T16:08:44.340Z,20
2018-10-11T16:13:46.896Z,19.8
2018-10-11T16:18:49.318Z,19.5
2018-10-11T16:23:51.717Z,19.4
2018-10-11T16:28:54.266Z,19.2
2018-10-11T16:33:56.634Z,18.9
2018-10-11T16:38:59.154Z,18.7
2018-10-11T16:44:01.563Z,18.6
2018-10-11T16:49:04.028Z,18.3
2018-10-11T16:54:06.493Z,18.2
2018-10-11T16:59:08.969Z,17.9
2018-10-11T17:04:11.440Z,17.9
2018-10-11T17:09:13.849Z,17.9
2018-10-11T17:14:16.432Z,17.9
2018-10-11T17:19:18.756Z,17.7
2018-10-11T17:24:21.222Z,17.3
2018-10-11T17:29:23.692Z,16.9
2018-10-11T17:34:26.206Z,16.5
2018-10-11T17:39:28.593Z,16.2
2018-10-11T17:44:31.080Z,15.8
2018-10-11T17:49:33.508Z,15.4
2018-10-11T17:54:35.970Z,15.1
2018-10-11T17:59:38.447Z,14.7
2018-10-11T18:04:40.890Z,14.6
2018-10-11T18:09:43.345Z,14.6
2018-10-11T18:14:45.801Z,14.5
2018-10-11T18:19:48.249Z,14.6
2018-10-11T18:24:50.702Z,15
2018-10-11T18:29:53.170Z,15.3
2018-10-11T18:34:55.632Z,15.6
2018-10-11T18:39:58.101Z,15.8
2018-10-11T18:45:00.669Z,16.1
2018-10-11T18:50:03.060Z,16.2
2018-10-11T18:55:05.460Z,16.3
2018-10-11T19:00:07.928Z,16.6
2018-10-11T19:05:10.376Z,16.7
2018-10-11T19:10:12.845Z,16.7
2018-10-11T19:15:15.311Z,16.8
2018-10-11T19:20:17.790Z,16.9
2018-10-11T19:25:20.208Z,16.9
2018-10-11T19:30:22.691Z,16.9
2018-10-11T19:35:25.129Z,16.8
2018-10-11T19:40:27.578Z,16.8
2018-10-11T19:45:30.050Z,16.7
2018-10-11T19:50:32.495Z,16.7
2018-10-11T19:55:35.003Z,16.7
2018-10-11T20:00:37.438Z,16.6
2018-10-11T20:05:39.883Z,16.6
2018-10-11T20:10:42.343Z,16.6
2018-10-11T20:15:44.792Z,16.6
2018-10-11T20:20:47.241Z,16.4
2018-10-11T20:25:49.736Z,16.4
2018-10-11T20:30:52.157Z,16.5
2018-10-11T20:35:54.634Z,16.3
2018-10-11T20:45:59.528Z,16.4
2018-10-11T20:51:02.067Z,16.4
2018-10-11T20:56:04.456Z,16.5
2018-10-11T21:01:06.913Z,16.4
2018-10-11T21:06:09.362Z,16.3
2018-10-11T21:11:11.832Z,16.2
2018-10-11T21:16:14.367Z,16.2
2018-10-11T21:21:16.784Z,16.2
2018-10-11T21:26:19.211Z,16.1
2018-10-11T21:31:21.652Z,16
2018-10-11T21:36:24.126Z,15.8
2018-10-11T21:41:26.585Z,15.8
2018-10-11T21:46:29.172Z,15.7
2018-10-11T21:51:31.477Z,15.7
2018-10-11T21:56:33.943Z,15.6
2018-10-11T22:01:36.419Z,15.4
2018-10-11T22:06:38.886Z,15.5
2018-10-11T22:11:41.311Z,15.6
2018-10-11T22:16:43.780Z,15.6
2018-10-11T22:21:46.276Z,15.3
2018-10-11T22:26:48.694Z,15
2018-10-11T22:31:51.188Z,14.6
2018-10-11T22:36:53.632Z,14.5
2018-10-11T22:41:56.073Z,14.2
2018-10-11T22:46:58.512Z,13.9
2018-10-11T22:52:00.987Z,13.7
2018-10-11T22:57:03.433Z,13.6
2018-10-11T23:02:05.899Z,13.6
2018-10-11T23:07:08.356Z,13.5
2018-10-11T23:12:10.827Z,13.3
2018-10-11T23:17:13.262Z,13.2
2018-10-11T23:22:15.787Z,13.2
2018-10-11T23:27:18.184Z,13.2
2018-10-11T23:32:20.907Z,13.3
2018-10-11T23:37:23.104Z,13.3
2018-10-11T23:42:25.568Z,13.2
2018-10-11T23:47:28.021Z,13.1
2018-10-11T23:52:30.484Z,13
2018-10-11T23:57:32.927Z,12.8
